Station Historical Data
Daily Summary for May 3, 2017 Units:  Both    English   Metric
« Previous Day
Next Day »
Daily Weekly Monthly Yearly Custom
  High: Low: Average:
Temperature: 53.3 °F /  11.8 °C 40.4 °F /  4.7 °C 46.9 °F /  8.3 °C
Dew Point: 41.4 °F /  5.2 °C 34.0 °F /  1.1 °C 37.3 °F /  2.9 °C
Humidity: 86% 56% 70%
Wind Speed: 14.0mph /  22.5km/h - 5.5mph /  8.9km/h
Wind Gust: 20.0mph /  32.2km/h - -
Wind- - West
Pressure: 30.24 in /  1023.9 hPa 29.77 in /  1008 hPa -
Precipitation: 0.02 in /  0.51 mm    
Historical Graphs
 
 
Tabular Data for May 3, 2017
Time Temperature Dew Point Pressure Wind Wind Speed Wind Gust Humidity Rainfall Rate (Hourly)
00:00 45.9 °F /  7.7 °C 40.7 °F /  4.8 °C 29.77in /  1008hPa WSW 7.0mph /  11.3km/h 16.0mph /  25.7km/h 82% 0.00in /  0mm
00:05 45.8 °F /  7.7 °C 40.6 °F /  4.8 °C 29.77in /  1008hPa WNW 4.0mph /  6.4km/h 18.0mph /  29km/h 82% 0.00in /  0mm
00:10 45.8 °F /  7.7 °C 40.6 °F /  4.8 °C 29.77in /  1008hPa WSW 11.0mph /  17.7km/h 17.0mph /  27.4km/h 82% 0.00in /  0mm
00:15 45.7 °F /  7.6 °C 40.5 °F /  4.7 °C 29.77in /  1008hPa WSW 8.0mph /  12.9km/h 17.0mph /  27.4km/h 82% 0.00in /  0mm
00:20 45.7 °F /  7.6 °C 40.5 °F /  4.7 °C 29.77in /  1008hPa SSW 7.0mph /  11.3km/h 17.0mph /  27.4km/h 82% 0.00in /  0mm
00:25 45.7 °F /  7.6 °C 40.5 °F /  4.7 °C 29.77in /  1008hPa WSW 9.0mph /  14.5km/h 17.0mph /  27.4km/h 82% 0.00in /  0mm
00:30 45.7 °F /  7.6 °C 40.5 °F /  4.7 °C 29.77in /  1008hPa WSW 9.0mph /  14.5km/h 16.0mph /  25.7km/h 82% 0.00in /  0mm
00:35 45.7 °F /  7.6 °C 40.5 °F /  4.7 °C 29.77in /  1008hPa WSW 8.0mph /  12.9km/h 15.0mph /  24.1km/h 82% 0.00in /  0mm
00:40 45.6 °F /  7.6 °C 40.4 °F /  4.7 °C 29.78in /  1008.4hPa WSW 8.0mph /  12.9km/h 15.0mph /  24.1km/h 82% 0.00in /  0mm
00:45 45.6 °F /  7.6 °C 40.7 °F /  4.8 °C 29.78in /  1008.4hPa West 11.0mph /  17.7km/h 20.0mph /  32.2km/h 83% 0.00in /  0mm
00:50 45.5 °F /  7.5 °C 40.6 °F /  4.8 °C 29.78in /  1008.4hPa SW 8.0mph /  12.9km/h 16.0mph /  25.7km/h 83% 0.00in /  0mm
00:55 45.5 °F /  7.5 °C 40.6 °F /  4.8 °C 29.78in /  1008.4hPa WSW 8.0mph /  12.9km/h 19.0mph /  30.6km/h 83% 0.00in /  0mm
01:00 45.5 °F /  7.5 °C 40.6 °F /  4.8 °C 29.78in /  1008.4hPa West 5.0mph /  8km/h 11.0mph /  17.7km/h 83% 0.00in /  0mm
01:05 45.5 °F /  7.5 °C 40.6 °F /  4.8 °C 29.78in /  1008.4hPa WSW 8.0mph /  12.9km/h 15.0mph /  24.1km/h 83% 0.00in /  0mm
01:10 45.6 °F /  7.6 °C 40.7 °F /  4.8 °C 29.78in /  1008.4hPa West 8.0mph /  12.9km/h 13.0mph /  20.9km/h 83% 0.00in /  0mm
01:15 45.7 °F /  7.6 °C 40.5 °F /  4.7 °C 29.78in /  1008.4hPa West 2.0mph /  3.2km/h 12.0mph /  19.3km/h 82% 0.00in /  0mm
01:20 45.8 °F /  7.7 °C 40.6 °F /  4.8 °C 29.78in /  1008.4hPa West 6.0mph /  9.7km/h 12.0mph /  19.3km/h 82% 0.00in /  0mm
01:25 45.8 °F /  7.7 °C 40.3 °F /  4.6 °C 29.78in /  1008.4hPa West 5.0mph /  8km/h 12.0mph /  19.3km/h 81% 0.00in /  0mm
01:30 45.9 °F /  7.7 °C 39.8 °F /  4.3 °C 29.78in /  1008.4hPa West 6.0mph /  9.7km/h 15.0mph /  24.1km/h 79% 0.00in /  0mm
01:35 45.9 °F /  7.7 °C 39.1 °F /  3.9 °C 29.79in /  1008.7hPa West 6.0mph /  9.7km/h 15.0mph /  24.1km/h 77% 0.00in /  0mm
01:40 45.8 °F /  7.7 °C 38.7 °F /  3.7 °C 29.79in /  1008.7hPa West 6.0mph /  9.7km/h 14.0mph /  22.5km/h 76% 0.00in /  0mm
01:45 45.8 °F /  7.7 °C 38.7 °F /  3.7 °C 29.79in /  1008.7hPa West 11.0mph /  17.7km/h 13.0mph /  20.9km/h 76% 0.00in /  0mm
01:50 45.7 °F /  7.6 °C 38.2 °F /  3.4 °C 29.80in /  1009hPa West 5.0mph /  8km/h 14.0mph /  22.5km/h 75% 0.00in /  0mm
01:55 45.6 °F /  7.6 °C 38.5 °F /  3.6 °C 29.80in /  1009hPa West 7.0mph /  11.3km/h 14.0mph /  22.5km/h 76% 0.00in /  0mm
02:00 45.6 °F /  7.6 °C 38.5 °F /  3.6 °C 29.80in /  1009hPa West 6.0mph /  9.7km/h 12.0mph /  19.3km/h 76% 0.00in /  0mm
02:05 45.5 °F /  7.5 °C 38.4 °F /  3.6 °C 29.80in /  1009hPa West 6.0mph /  9.7km/h 14.0mph /  22.5km/h 76% 0.00in /  0mm
02:10 45.4 °F /  7.4 °C 38.3 °F /  3.5 °C 29.80in /  1009hPa WSW 9.0mph /  14.5km/h 14.0mph /  22.5km/h 76% 0.00in /  0mm
02:15 45.4 °F /  7.4 °C 38.3 °F /  3.5 °C 29.80in /  1009hPa West 7.0mph /  11.3km/h 14.0mph /  22.5km/h 76% 0.00in /  0mm
02:20 45.3 °F /  7.4 °C 38.2 °F /  3.4 °C 29.80in /  1009hPa WSW 3.0mph /  4.8km/h 13.0mph /  20.9km/h 76% 0.00in /  0mm
02:25 45.2 °F /  7.3 °C 38.1 °F /  3.4 °C 29.80in /  1009hPa NNW 7.0mph /  11.3km/h 14.0mph /  22.5km/h 76% 0.00in /  0mm
02:30 45.2 °F /  7.3 °C 37.7 °F /  3.2 °C 29.81in /  1009.4hPa West 6.0mph /  9.7km/h 14.0mph /  22.5km/h 75% 0.00in /  0mm
02:35 45.1 °F /  7.3 °C 37.6 °F /  3.1 °C 29.81in /  1009.4hPa West 6.0mph /  9.7km/h 15.0mph /  24.1km/h 75% 0.00in /  0mm
02:40 45.1 °F /  7.3 °C 38.0 °F /  3.3 °C 29.81in /  1009.4hPa West 6.0mph /  9.7km/h 15.0mph /  24.1km/h 76% 0.00in /  0mm
02:45 45.0 °F /  7.2 °C 37.9 °F /  3.3 °C 29.81in /  1009.4hPa WSW 3.0mph /  4.8km/h 11.0mph /  17.7km/h 76% 0.00in /  0mm
02:55 44.6 °F /  7 °C 37.2 °F /  2.9 °C 29.82in /  1009.7hPa SW 5.0mph /  8km/h 16.0mph /  25.7km/h 75% 0.00in /  0mm
03:00 44.5 °F /  6.9 °C 37.1 °F /  2.8 °C 29.82in /  1009.7hPa West 6.0mph /  9.7km/h 17.0mph /  27.4km/h 75% 0.00in /  0mm
03:10 44.3 °F /  6.8 °C 37.2 °F /  2.9 °C 29.82in /  1009.7hPa West 3.0mph /  4.8km/h 14.0mph /  22.5km/h 76% 0.00in /  0mm
03:15 44.3 °F /  6.8 °C 37.2 °F /  2.9 °C 29.82in /  1009.7hPa West 7.0mph /  11.3km/h 9.0mph /  14.5km/h 76% 0.00in /  0mm
03:20 44.3 °F /  6.8 °C 37.2 °F /  2.9 °C 29.83in /  1010hPa WNW 3.0mph /  4.8km/h 11.0mph /  17.7km/h 76% 0.00in /  0mm
03:25 44.2 °F /  6.8 °C 37.4 °F /  3 °C 29.83in /  1010hPa WNW 7.0mph /  11.3km/h 10.0mph /  16.1km/h 77% 0.00in /  0mm
03:30 44.1 °F /  6.7 °C 37.3 °F /  2.9 °C 29.83in /  1010hPa West 4.0mph /  6.4km/h 12.0mph /  19.3km/h 77% 0.00in /  0mm
03:35 44.1 °F /  6.7 °C 37.7 °F /  3.2 °C 29.84in /  1010.4hPa West 6.0mph /  9.7km/h 12.0mph /  19.3km/h 78% 0.00in /  0mm
03:40 44.0 °F /  6.7 °C 37.6 °F /  3.1 °C 29.84in /  1010.4hPa West 6.0mph /  9.7km/h 13.0mph /  20.9km/h 78% 0.00in /  0mm
03:45 43.9 °F /  6.6 °C 37.5 °F /  3.1 °C 29.84in /  1010.4hPa West 9.0mph /  14.5km/h 10.0mph /  16.1km/h 78% 0.00in /  0mm
03:50 43.8 °F /  6.6 °C 37.4 °F /  3 °C 29.85in /  1010.7hPa West 5.0mph /  8km/h 12.0mph /  19.3km/h 78% 0.00in /  0mm
03:55 43.8 °F /  6.6 °C 37.4 °F /  3 °C 29.85in /  1010.7hPa West 7.0mph /  11.3km/h 9.0mph /  14.5km/h 78% 0.00in /  0mm
04:00 43.8 °F /  6.6 °C 37.4 °F /  3 °C 29.85in /  1010.7hPa NW 7.0mph /  11.3km/h 11.0mph /  17.7km/h 78% 0.00in /  0mm
04:05 43.7 °F /  6.5 °C 37.3 °F /  2.9 °C 29.86in /  1011.1hPa West 7.0mph /  11.3km/h 14.0mph /  22.5km/h 78% 0.00in /  0mm
04:10 43.6 °F /  6.4 °C 37.5 °F /  3.1 °C 29.86in /  1011.1hPa WNW 7.0mph /  11.3km/h 14.0mph /  22.5km/h 79% 0.00in /  0mm
04:15 43.5 °F /  6.4 °C 37.4 °F /  3 °C 29.86in /  1011.1hPa West 6.0mph /  9.7km/h 12.0mph /  19.3km/h 79% 0.00in /  0mm
04:20 43.5 °F /  6.4 °C 37.4 °F /  3 °C 29.86in /  1011.1hPa WNW 9.0mph /  14.5km/h 18.0mph /  29km/h 79% 0.00in /  0mm
04:25 43.5 °F /  6.4 °C 37.4 °F /  3 °C 29.86in /  1011.1hPa West 7.0mph /  11.3km/h 12.0mph /  19.3km/h 79% 0.00in /  0mm
04:30 43.4 °F /  6.3 °C 37.3 °F /  2.9 °C 29.87in /  1011.4hPa West 6.0mph /  9.7km/h 13.0mph /  20.9km/h 79% 0.00in /  0mm
04:35 43.4 °F /  6.3 °C 37.3 °F /  2.9 °C 29.87in /  1011.4hPa WNW 7.0mph /  11.3km/h 13.0mph /  20.9km/h 79% 0.00in /  0mm
04:40 43.4 °F /  6.3 °C 37.3 °F /  2.9 °C 29.87in /  1011.4hPa West 6.0mph /  9.7km/h 12.0mph /  19.3km/h 79% 0.00in /  0mm
04:45 43.3 °F /  6.3 °C 37.2 °F /  2.9 °C 29.88in /  1011.7hPa West 6.0mph /  9.7km/h 12.0mph /  19.3km/h 79% 0.00in /  0mm
04:50 43.2 °F /  6.2 °C 37.1 °F /  2.8 °C 29.88in /  1011.7hPa West 6.0mph /  9.7km/h 11.0mph /  17.7km/h 79% 0.00in /  0mm
04:55 43.2 °F /  6.2 °C 37.1 °F /  2.8 °C 29.88in /  1011.7hPa WNW 6.0mph /  9.7km/h 12.0mph /  19.3km/h 79% 0.00in /  0mm
05:00 43.2 °F /  6.2 °C 37.1 °F /  2.8 °C 29.88in /  1011.7hPa West 2.0mph /  3.2km/h 12.0mph /  19.3km/h 79% 0.00in /  0mm
05:10 43.1 °F /  6.2 °C 37.0 °F /  2.8 °C 29.89in /  1012.1hPa West 3.0mph /  4.8km/h 11.0mph /  17.7km/h 79% 0.00in /  0mm
05:15 43.2 °F /  6.2 °C 37.4 °F /  3 °C 29.89in /  1012.1hPa WNW 4.0mph /  6.4km/h 11.0mph /  17.7km/h 80% 0.00in /  0mm
05:20 43.1 °F /  6.2 °C 37.3 °F /  2.9 °C 29.90in /  1012.4hPa WNW 5.0mph /  8km/h 8.0mph /  12.9km/h 80% 0.00in /  0mm
05:25 43.0 °F /  6.1 °C 37.6 °F /  3.1 °C 29.90in /  1012.4hPa WNW 6.0mph /  9.7km/h 11.0mph /  17.7km/h 81% 0.00in /  0mm
05:30 42.8 °F /  6 °C 38.0 °F /  3.3 °C 29.90in /  1012.4hPa West 2.0mph /  3.2km/h 8.0mph /  12.9km/h 83% 0.01in /  0.25mm
05:35 42.5 °F /  5.8 °C 38.0 °F /  3.3 °C 29.91in /  1012.8hPa WNW 4.0mph /  6.4km/h 12.0mph /  19.3km/h 84% 0.01in /  0.25mm
05:40 41.9 °F /  5.5 °C 37.7 °F /  3.2 °C 29.91in /  1012.8hPa NW 5.0mph /  8km/h 12.0mph /  19.3km/h 85% 0.02in /  0.51mm
05:45 41.2 °F /  5.1 °C 36.7 °F /  2.6 °C 29.91in /  1012.8hPa NW 5.0mph /  8km/h 13.0mph /  20.9km/h 84% 0.02in /  0.51mm
05:50 40.9 °F /  4.9 °C 36.7 °F /  2.6 °C 29.92in /  1013.1hPa WNW 5.0mph /  8km/h 13.0mph /  20.9km/h 85% 0.02in /  0.51mm
05:55 40.7 °F /  4.8 °C 36.8 °F /  2.7 °C 29.92in /  1013.1hPa NW 4.0mph /  6.4km/h 10.0mph /  16.1km/h 86% 0.02in /  0.51mm
06:00 40.6 °F /  4.8 °C 36.7 °F /  2.6 °C 29.93in /  1013.4hPa WNW 5.0mph /  8km/h 8.0mph /  12.9km/h 86% 0.02in /  0.51mm
06:05 40.6 °F /  4.8 °C 36.7 °F /  2.6 °C 29.93in /  1013.4hPa West 2.0mph /  3.2km/h 7.0mph /  11.3km/h 86% 0.02in /  0.51mm
06:10 40.6 °F /  4.8 °C 36.7 °F /  2.6 °C 29.93in /  1013.4hPa West 3.0mph /  4.8km/h 8.0mph /  12.9km/h 86% 0.02in /  0.51mm
06:15 40.5 °F /  4.7 °C 36.6 °F /  2.6 °C 29.93in /  1013.4hPa NW 4.0mph /  6.4km/h 6.0mph /  9.7km/h 86% 0.02in /  0.51mm
06:20 40.4 °F /  4.7 °C 36.2 °F /  2.3 °C 29.94in /  1013.8hPa NW 7.0mph /  11.3km/h 9.0mph /  14.5km/h 85% 0.02in /  0.51mm
06:25 40.5 °F /  4.7 °C 36.0 °F /  2.2 °C 29.95in /  1014.1hPa NW 3.0mph /  4.8km/h 7.0mph /  11.3km/h 84% 0.02in /  0.51mm
06:30 40.5 °F /  4.7 °C 35.7 °F /  2.1 °C 29.94in /  1013.8hPa WNW 5.0mph /  8km/h 11.0mph /  17.7km/h 83% 0.01in /  0.25mm
06:35 40.6 °F /  4.8 °C 35.2 °F /  1.8 °C 29.95in /  1014.1hPa NW 4.0mph /  6.4km/h 11.0mph /  17.7km/h 81% 0.01in /  0.25mm
06:40 40.5 °F /  4.7 °C 34.5 °F /  1.4 °C 29.95in /  1014.1hPa NNW 4.0mph /  6.4km/h 12.0mph /  19.3km/h 79% 0.00in /  0mm
06:45 40.5 °F /  4.7 °C 34.2 °F /  1.2 °C 29.96in /  1014.4hPa NW 5.0mph /  8km/h 13.0mph /  20.9km/h 78% 0.00in /  0mm
06:50 40.5 °F /  4.7 °C 34.2 °F /  1.2 °C 29.96in /  1014.4hPa NW 5.0mph /  8km/h 13.0mph /  20.9km/h 78% 0.00in /  0mm
06:55 40.6 °F /  4.8 °C 34.3 °F /  1.3 °C 29.96in /  1014.4hPa NW 5.0mph /  8km/h 11.0mph /  17.7km/h 78% 0.00in /  0mm
07:00 40.6 °F /  4.8 °C 34.0 °F /  1.1 °C 29.96in /  1014.4hPa NW 2.0mph /  3.2km/h 11.0mph /  17.7km/h 77% 0.00in /  0mm
07:05 40.7 °F /  4.8 °C 34.0 °F /  1.1 °C 29.97in /  1014.8hPa NW 5.0mph /  8km/h 11.0mph /  17.7km/h 77% 0.00in /  0mm
07:10 40.8 °F /  4.9 °C 34.1 °F /  1.2 °C 29.97in /  1014.8hPa WSW 7.0mph /  11.3km/h 9.0mph /  14.5km/h 77% 0.00in /  0mm
07:15 41.0 °F /  5 °C 34.3 °F /  1.3 °C 29.98in /  1015.1hPa NW 7.0mph /  11.3km/h 8.0mph /  12.9km/h 77% 0.00in /  0mm
07:20 41.2 °F /  5.1 °C 34.5 °F /  1.4 °C 29.98in /  1015.1hPa West 5.0mph /  8km/h 10.0mph /  16.1km/h 77% 0.00in /  0mm
07:25 41.3 °F /  5.2 °C 35.0 °F /  1.7 °C 29.99in /  1015.5hPa WNW 3.0mph /  4.8km/h 9.0mph /  14.5km/h 78% 0.00in /  0mm
07:30 41.4 °F /  5.2 °C 34.7 °F /  1.5 °C 29.99in /  1015.5hPa NNW 4.0mph /  6.4km/h 8.0mph /  12.9km/h 77% 0.00in /  0mm
07:35 41.4 °F /  5.2 °C 34.7 °F /  1.5 °C 29.99in /  1015.5hPa WNW 5.0mph /  8km/h 10.0mph /  16.1km/h 77% 0.00in /  0mm
07:40 41.5 °F /  5.3 °C 34.5 °F /  1.4 °C 29.99in /  1015.5hPa WNW 5.0mph /  8km/h 10.0mph /  16.1km/h 76% 0.00in /  0mm
07:45 41.4 °F /  5.2 °C 34.1 °F /  1.2 °C 29.99in /  1015.5hPa NW 5.0mph /  8km/h 11.0mph /  17.7km/h 75% 0.00in /  0mm
07:50 41.6 °F /  5.3 °C 34.3 °F /  1.3 °C 29.99in /  1015.5hPa NW 5.0mph /  8km/h 11.0mph /  17.7km/h 75% 0.00in /  0mm
07:55 41.7 °F /  5.4 °C 34.4 °F /  1.3 °C 29.99in /  1015.5hPa WNW 4.0mph /  6.4km/h 11.0mph /  17.7km/h 75% 0.00in /  0mm
08:00 41.9 °F /  5.5 °C 34.2 °F /  1.2 °C 30.00in /  1015.8hPa WNW 4.0mph /  6.4km/h 8.0mph /  12.9km/h 74% 0.00in /  0mm
08:05 42.0 °F /  5.6 °C 34.3 °F /  1.3 °C 30.00in /  1015.8hPa WNW 3.0mph /  4.8km/h 8.0mph /  12.9km/h 74% 0.00in /  0mm
08:10 42.3 °F /  5.7 °C 34.9 °F /  1.6 °C 30.00in /  1015.8hPa WNW 3.0mph /  4.8km/h 8.0mph /  12.9km/h 75% 0.00in /  0mm
08:15 42.2 °F /  5.7 °C 34.5 °F /  1.4 °C 30.00in /  1015.8hPa WNW 4.0mph /  6.4km/h 7.0mph /  11.3km/h 74% 0.00in /  0mm
08:20 42.2 °F /  5.7 °C 34.5 °F /  1.4 °C 30.01in /  1016.1hPa WNW 5.0mph /  8km/h 12.0mph /  19.3km/h 74% 0.00in /  0mm
08:25 42.2 °F /  5.7 °C 34.8 °F /  1.6 °C 30.01in /  1016.1hPa WNW 3.0mph /  4.8km/h 9.0mph /  14.5km/h 75% 0.00in /  0mm
08:30 42.5 °F /  5.8 °C 34.8 °F /  1.6 °C 30.01in /  1016.1hPa WNW 7.0mph /  11.3km/h 7.0mph /  11.3km/h 74% 0.00in /  0mm
08:35 42.5 °F /  5.8 °C 34.5 °F /  1.4 °C 30.02in /  1016.5hPa NW 3.0mph /  4.8km/h 8.0mph /  12.9km/h 73% 0.00in /  0mm
08:40 42.5 °F /  5.8 °C 34.8 °F /  1.6 °C 30.02in /  1016.5hPa NW 4.0mph /  6.4km/h 11.0mph /  17.7km/h 74% 0.00in /  0mm
08:45 43.3 °F /  6.3 °C 35.9 °F /  2.2 °C 30.02in /  1016.5hPa NW 5.0mph /  8km/h 11.0mph /  17.7km/h 75% 0.00in /  0mm
08:50 44.4 °F /  6.9 °C 35.2 °F /  1.8 °C 30.02in /  1016.5hPa NW 4.0mph /  6.4km/h 9.0mph /  14.5km/h 70% 0.00in /  0mm
08:55 45.4 °F /  7.4 °C 35.8 °F /  2.1 °C 30.02in /  1016.5hPa NW 5.0mph /  8km/h 12.0mph /  19.3km/h 69% 0.00in /  0mm
09:00 45.2 °F /  7.3 °C 35.6 °F /  2 °C 30.02in /  1016.5hPa WNW 3.0mph /  4.8km/h 10.0mph /  16.1km/h 69% 0.00in /  0mm
09:05 45.9 °F /  7.7 °C 35.9 °F /  2.2 °C 30.02in /  1016.5hPa WNW 6.0mph /  9.7km/h 8.0mph /  12.9km/h 68% 0.00in /  0mm
09:10 46.2 °F /  7.9 °C 36.2 °F /  2.3 °C 30.03in /  1016.8hPa NW 5.0mph /  8km/h 12.0mph /  19.3km/h 68% 0.00in /  0mm
09:15 45.9 °F /  7.7 °C 35.6 °F /  2 °C 30.03in /  1016.8hPa West 5.0mph /  8km/h 11.0mph /  17.7km/h 67% 0.00in /  0mm
09:20 45.0 °F /  7.2 °C 35.8 °F /  2.1 °C 30.03in /  1016.8hPa WNW 8.0mph /  12.9km/h 9.0mph /  14.5km/h 70% 0.00in /  0mm
09:25 45.7 °F /  7.6 °C 36.1 °F /  2.3 °C 30.03in /  1016.8hPa SSW 5.0mph /  8km/h 10.0mph /  16.1km/h 69% 0.00in /  0mm
09:30 45.7 °F /  7.6 °C 36.1 °F /  2.3 °C 30.03in /  1016.8hPa West 3.0mph /  4.8km/h 12.0mph /  19.3km/h 69% 0.00in /  0mm
09:35 45.1 °F /  7.3 °C 35.2 °F /  1.8 °C 30.04in /  1017.2hPa West 6.0mph /  9.7km/h 11.0mph /  17.7km/h 68% 0.00in /  0mm
09:40 44.9 °F /  7.2 °C 35.7 °F /  2.1 °C 30.04in /  1017.2hPa West 6.0mph /  9.7km/h 11.0mph /  17.7km/h 70% 0.00in /  0mm
09:45 45.0 °F /  7.2 °C 36.2 °F /  2.3 °C 30.04in /  1017.2hPa West 5.0mph /  8km/h 11.0mph /  17.7km/h 71% 0.00in /  0mm
09:50 46.4 °F /  8 °C 35.7 °F /  2.1 °C 30.05in /  1017.5hPa WNW 5.0mph /  8km/h 11.0mph /  17.7km/h 66% 0.00in /  0mm
09:55 46.7 °F /  8.2 °C 35.6 °F /  2 °C 30.05in /  1017.5hPa NW 4.0mph /  6.4km/h 9.0mph /  14.5km/h 65% 0.00in /  0mm
10:00 48.3 °F /  9.1 °C 37.5 °F /  3.1 °C 30.05in /  1017.5hPa NNW 3.0mph /  4.8km/h 11.0mph /  17.7km/h 66% 0.00in /  0mm
10:05 47.1 °F /  8.4 °C 35.5 °F /  1.9 °C 30.05in /  1017.5hPa WNW 9.0mph /  14.5km/h 11.0mph /  17.7km/h 64% 0.00in /  0mm
10:10 46.0 °F /  7.8 °C 34.9 °F /  1.6 °C 30.06in /  1017.8hPa WNW 7.0mph /  11.3km/h 13.0mph /  20.9km/h 65% 0.00in /  0mm
10:15 47.1 °F /  8.4 °C 36.3 °F /  2.4 °C 30.06in /  1017.8hPa WNW 6.0mph /  9.7km/h 13.0mph /  20.9km/h 66% 0.00in /  0mm
10:20 47.2 °F /  8.4 °C 36.0 °F /  2.2 °C 30.06in /  1017.8hPa WNW 5.0mph /  8km/h 12.0mph /  19.3km/h 65% 0.00in /  0mm
10:25 47.9 °F /  8.8 °C 35.9 °F /  2.2 °C 30.06in /  1017.8hPa NW 5.0mph /  8km/h 12.0mph /  19.3km/h 63% 0.00in /  0mm
10:30 48.7 °F /  9.3 °C 37.1 °F /  2.8 °C 30.07in /  1018.2hPa West 2.0mph /  3.2km/h 10.0mph /  16.1km/h 64% 0.00in /  0mm
10:35 48.9 °F /  9.4 °C 37.3 °F /  2.9 °C 30.08in /  1018.5hPa NNE 5.0mph /  8km/h 10.0mph /  16.1km/h 64% 0.00in /  0mm
10:40 47.7 °F /  8.7 °C 36.9 °F /  2.7 °C 30.08in /  1018.5hPa WSW 3.0mph /  4.8km/h 15.0mph /  24.1km/h 66% 0.00in /  0mm
10:45 48.9 °F /  9.4 °C 37.6 °F /  3.1 °C 30.08in /  1018.5hPa WNW 5.0mph /  8km/h 15.0mph /  24.1km/h 65% 0.00in /  0mm
10:50 47.6 °F /  8.7 °C 35.2 °F /  1.8 °C 30.09in /  1018.8hPa WNW 6.0mph /  9.7km/h 12.0mph /  19.3km/h 62% 0.00in /  0mm
10:55 49.6 °F /  9.8 °C 39.8 °F /  4.3 °C 30.09in /  1018.8hPa WNW 6.0mph /  9.7km/h 11.0mph /  17.7km/h 69% 0.00in /  0mm
11:00 48.9 °F /  9.4 °C 36.4 °F /  2.4 °C 30.09in /  1018.8hPa WNW 9.0mph /  14.5km/h 10.0mph /  16.1km/h 62% 0.00in /  0mm
11:05 49.6 °F /  9.8 °C 37.1 °F /  2.8 °C 30.10in /  1019.2hPa NNW 3.0mph /  4.8km/h 10.0mph /  16.1km/h 62% 0.00in /  0mm
11:10 49.8 °F /  9.9 °C 38.1 °F /  3.4 °C 30.10in /  1019.2hPa WNW 6.0mph /  9.7km/h 10.0mph /  16.1km/h 64% 0.00in /  0mm
11:15 49.4 °F /  9.7 °C 36.5 °F /  2.5 °C 30.11in /  1019.5hPa WNW 5.0mph /  8km/h 14.0mph /  22.5km/h 61% 0.00in /  0mm
11:20 49.8 °F /  9.9 °C 38.1 °F /  3.4 °C 30.12in /  1019.9hPa West 6.0mph /  9.7km/h 14.0mph /  22.5km/h 64% 0.00in /  0mm
11:25 51.0 °F /  10.6 °C 38.4 °F /  3.6 °C 30.12in /  1019.9hPa WNW 6.0mph /  9.7km/h 13.0mph /  20.9km/h 62% 0.00in /  0mm
11:30 51.4 °F /  10.8 °C 38.4 °F /  3.6 °C 30.13in /  1020.2hPa WNW 9.0mph /  14.5km/h 12.0mph /  19.3km/h 61% 0.00in /  0mm
11:35 50.5 °F /  10.3 °C 36.7 °F /  2.6 °C 30.12in /  1019.9hPa WNW 2.0mph /  3.2km/h 12.0mph /  19.3km/h 59% 0.00in /  0mm
11:40 50.9 °F /  10.5 °C 37.9 °F /  3.3 °C 30.11in /  1019.5hPa WNW 6.0mph /  9.7km/h 12.0mph /  19.3km/h 61% 0.00in /  0mm
11:45 50.4 °F /  10.2 °C 35.7 °F /  2.1 °C 30.12in /  1019.9hPa NW 5.0mph /  8km/h 12.0mph /  19.3km/h 57% 0.00in /  0mm
11:50 50.5 °F /  10.3 °C 37.1 °F /  2.8 °C 30.12in /  1019.9hPa WNW 6.0mph /  9.7km/h 10.0mph /  16.1km/h 60% 0.00in /  0mm
11:55 51.3 °F /  10.7 °C 37.4 °F /  3 °C 30.12in /  1019.9hPa West 6.0mph /  9.7km/h 12.0mph /  19.3km/h 59% 0.00in /  0mm
12:00 51.0 °F /  10.6 °C 37.2 °F /  2.9 °C 30.13in /  1020.2hPa WNW 6.0mph /  9.7km/h 12.0mph /  19.3km/h 59% 0.00in /  0mm
12:05 51.6 °F /  10.9 °C 36.4 °F /  2.4 °C 30.13in /  1020.2hPa West 5.0mph /  8km/h 11.0mph /  17.7km/h 56% 0.00in /  0mm
12:10 52.2 °F /  11.2 °C 38.3 °F /  3.5 °C 30.13in /  1020.2hPa West 6.0mph /  9.7km/h 13.0mph /  20.9km/h 59% 0.00in /  0mm
12:15 51.8 °F /  11 °C 38.3 °F /  3.5 °C 30.13in /  1020.2hPa WNW 5.0mph /  8km/h 13.0mph /  20.9km/h 60% 0.00in /  0mm
12:20 52.3 °F /  11.3 °C 37.1 °F /  2.8 °C 30.14in /  1020.5hPa WNW 5.0mph /  8km/h 10.0mph /  16.1km/h 56% 0.00in /  0mm
12:25 53.3 °F /  11.8 °C 38.0 °F /  3.3 °C 30.14in /  1020.5hPa West 5.0mph /  8km/h 12.0mph /  19.3km/h 56% 0.00in /  0mm
12:35 50.8 °F /  10.4 °C 39.5 °F /  4.2 °C 30.15in /  1020.9hPa West 7.0mph /  11.3km/h 16.0mph /  25.7km/h 65% 0.00in /  0mm
12:40 50.7 °F /  10.4 °C 39.4 °F /  4.1 °C 30.15in /  1020.9hPa SW 8.0mph /  12.9km/h 16.0mph /  25.7km/h 65% 0.00in /  0mm
12:45 50.3 °F /  10.2 °C 39.4 °F /  4.1 °C 30.15in /  1020.9hPa SW 14.0mph /  22.5km/h 18.0mph /  29km/h 66% 0.00in /  0mm
12:50 49.9 °F /  9.9 °C 39.0 °F /  3.9 °C 30.15in /  1020.9hPa WNW 7.0mph /  11.3km/h 15.0mph /  24.1km/h 66% 0.00in /  0mm
12:55 50.7 °F /  10.4 °C 39.4 °F /  4.1 °C 30.15in /  1020.9hPa WSW 11.0mph /  17.7km/h 16.0mph /  25.7km/h 65% 0.00in /  0mm
13:00 50.4 °F /  10.2 °C 39.1 °F /  3.9 °C 30.15in /  1020.9hPa SW 9.0mph /  14.5km/h 17.0mph /  27.4km/h 65% 0.00in /  0mm
13:05 51.4 °F /  10.8 °C 40.4 °F /  4.7 °C 30.15in /  1020.9hPa WSW 5.0mph /  8km/h 16.0mph /  25.7km/h 66% 0.00in /  0mm
13:10 51.5 °F /  10.8 °C 40.1 °F /  4.5 °C 30.15in /  1020.9hPa SW 7.0mph /  11.3km/h 16.0mph /  25.7km/h 65% 0.00in /  0mm
13:15 51.9 °F /  11.1 °C 40.1 °F /  4.5 °C 30.15in /  1020.9hPa SW 7.0mph /  11.3km/h 15.0mph /  24.1km/h 64% 0.00in /  0mm
13:20 51.0 °F /  10.6 °C 39.6 °F /  4.2 °C 30.15in /  1020.9hPa WSW 8.0mph /  12.9km/h 17.0mph /  27.4km/h 65% 0.00in /  0mm
13:25 50.6 °F /  10.3 °C 39.3 °F /  4.1 °C 30.15in /  1020.9hPa SW 9.0mph /  14.5km/h 18.0mph /  29km/h 65% 0.00in /  0mm
13:30 50.6 °F /  10.3 °C 40.0 °F /  4.4 °C 30.15in /  1020.9hPa SW 8.0mph /  12.9km/h 18.0mph /  29km/h 67% 0.00in /  0mm
13:35 51.2 °F /  10.7 °C 40.2 °F /  4.6 °C 30.15in /  1020.9hPa SW 9.0mph /  14.5km/h 18.0mph /  29km/h 66% 0.00in /  0mm
13:40 51.9 °F /  11.1 °C 40.5 °F /  4.7 °C 30.15in /  1020.9hPa SSW 10.0mph /  16.1km/h 17.0mph /  27.4km/h 65% 0.00in /  0mm
13:45 51.2 °F /  10.7 °C 39.4 °F /  4.1 °C 30.15in /  1020.9hPa WSW 8.0mph /  12.9km/h 17.0mph /  27.4km/h 64% 0.00in /  0mm
13:50 51.2 °F /  10.7 °C 39.8 °F /  4.3 °C 30.15in /  1020.9hPa SW 10.0mph /  16.1km/h 16.0mph /  25.7km/h 65% 0.00in /  0mm
13:55 51.0 °F /  10.6 °C 39.2 °F /  4 °C 30.15in /  1020.9hPa WSW 13.0mph /  20.9km/h 15.0mph /  24.1km/h 64% 0.00in /  0mm
14:00 51.6 °F /  10.9 °C 40.2 °F /  4.6 °C 30.15in /  1020.9hPa SW 6.0mph /  9.7km/h 17.0mph /  27.4km/h 65% 0.00in /  0mm
14:05 51.8 °F /  11 °C 40.0 °F /  4.4 °C 30.15in /  1020.9hPa SW 10.0mph /  16.1km/h 15.0mph /  24.1km/h 64% 0.00in /  0mm
14:10 51.0 °F /  10.6 °C 39.2 °F /  4 °C 30.15in /  1020.9hPa WSW 9.0mph /  14.5km/h 19.0mph /  30.6km/h 64% 0.00in /  0mm
14:15 51.0 °F /  10.6 °C 39.2 °F /  4 °C 30.15in /  1020.9hPa SW 9.0mph /  14.5km/h 19.0mph /  30.6km/h 64% 0.00in /  0mm
14:20 51.4 °F /  10.8 °C 39.6 °F /  4.2 °C 30.15in /  1020.9hPa WSW 9.0mph /  14.5km/h 15.0mph /  24.1km/h 64% 0.00in /  0mm
14:30 52.0 °F /  11.1 °C 41.0 °F /  5 °C 30.16in /  1021.2hPa WSW 9.0mph /  14.5km/h 13.0mph /  20.9km/h 66% 0.00in /  0mm
14:35 51.8 °F /  11 °C 39.6 °F /  4.2 °C 30.15in /  1020.9hPa WSW 8.0mph /  12.9km/h 15.0mph /  24.1km/h 63% 0.00in /  0mm
14:40 51.5 °F /  10.8 °C 39.7 °F /  4.3 °C 30.16in /  1021.2hPa WSW 10.0mph /  16.1km/h 16.0mph /  25.7km/h 64% 0.00in /  0mm
14:45 51.4 °F /  10.8 °C 39.2 °F /  4 °C 30.16in /  1021.2hPa SW 9.0mph /  14.5km/h 16.0mph /  25.7km/h 63% 0.00in /  0mm
14:50 51.1 °F /  10.6 °C 38.9 °F /  3.8 °C 30.16in /  1021.2hPa WSW 9.0mph /  14.5km/h 16.0mph /  25.7km/h 63% 0.00in /  0mm
14:55 52.4 °F /  11.3 °C 41.0 °F /  5 °C 30.16in /  1021.2hPa WSW 8.0mph /  12.9km/h 16.0mph /  25.7km/h 65% 0.00in /  0mm
15:00 52.3 °F /  11.3 °C 39.7 °F /  4.3 °C 30.16in /  1021.2hPa WSW 7.0mph /  11.3km/h 16.0mph /  25.7km/h 62% 0.00in /  0mm
15:05 53.0 °F /  11.7 °C 40.7 °F /  4.8 °C 30.16in /  1021.2hPa SSW 8.0mph /  12.9km/h 14.0mph /  22.5km/h 63% 0.00in /  0mm
15:10 53.1 °F /  11.7 °C 40.0 °F /  4.4 °C 30.15in /  1020.9hPa West 7.0mph /  11.3km/h 13.0mph /  20.9km/h 61% 0.00in /  0mm
15:15 53.3 °F /  11.8 °C 41.4 °F /  5.2 °C 30.15in /  1020.9hPa WSW 7.0mph /  11.3km/h 13.0mph /  20.9km/h 64% 0.00in /  0mm
15:20 52.4 °F /  11.3 °C 40.2 °F /  4.6 °C 30.15in /  1020.9hPa WSW 10.0mph /  16.1km/h 14.0mph /  22.5km/h 63% 0.00in /  0mm
15:25 52.7 °F /  11.5 °C 39.6 °F /  4.2 °C 30.15in /  1020.9hPa SW 8.0mph /  12.9km/h 15.0mph /  24.1km/h 61% 0.00in /  0mm
15:30 52.6 °F /  11.4 °C 39.1 °F /  3.9 °C 30.15in /  1020.9hPa West 5.0mph /  8km/h 13.0mph /  20.9km/h 60% 0.00in /  0mm
15:35 52.5 °F /  11.4 °C 39.4 °F /  4.1 °C 30.15in /  1020.9hPa West 8.0mph /  12.9km/h 13.0mph /  20.9km/h 61% 0.00in /  0mm
15:50 53.1 °F /  11.7 °C 39.6 °F /  4.2 °C 30.15in /  1020.9hPa SW 7.0mph /  11.3km/h 13.0mph /  20.9km/h 60% 0.00in /  0mm
16:00 52.9 °F /  11.6 °C 39.8 °F /  4.3 °C 30.15in /  1020.9hPa WSW 7.0mph /  11.3km/h 14.0mph /  22.5km/h 61% 0.00in /  0mm
16:05 53.2 °F /  11.8 °C 40.1 °F /  4.5 °C 30.16in /  1021.2hPa WSW 7.0mph /  11.3km/h 17.0mph /  27.4km/h 61% 0.00in /  0mm
16:10 52.8 °F /  11.6 °C 38.9 °F /  3.8 °C 30.15in /  1020.9hPa West 6.0mph /  9.7km/h 14.0mph /  22.5km/h 59% 0.00in /  0mm
16:15 52.1 °F /  11.2 °C 39.5 °F /  4.2 °C 30.15in /  1020.9hPa SW 9.0mph /  14.5km/h 14.0mph /  22.5km/h 62% 0.00in /  0mm
16:20 51.9 °F /  11.1 °C 38.9 °F /  3.8 °C 30.15in /  1020.9hPa SW 8.0mph /  12.9km/h 17.0mph /  27.4km/h 61% 0.00in /  0mm
16:25 51.9 °F /  11.1 °C 39.3 °F /  4.1 °C 30.15in /  1020.9hPa WSW 8.0mph /  12.9km/h 14.0mph /  22.5km/h 62% 0.00in /  0mm
16:30 52.8 °F /  11.6 °C 39.7 °F /  4.3 °C 30.15in /  1020.9hPa WSW 7.0mph /  11.3km/h 13.0mph /  20.9km/h 61% 0.00in /  0mm
16:35 52.0 °F /  11.1 °C 38.1 °F /  3.4 °C 30.14in /  1020.5hPa WSW 8.0mph /  12.9km/h 15.0mph /  24.1km/h 59% 0.00in /  0mm
16:40 51.4 °F /  10.8 °C 38.0 °F /  3.3 °C 30.14in /  1020.5hPa WNW 7.0mph /  11.3km/h 17.0mph /  27.4km/h 60% 0.00in /  0mm
16:45 51.4 °F /  10.8 °C 38.4 °F /  3.6 °C 30.14in /  1020.5hPa WSW 8.0mph /  12.9km/h 17.0mph /  27.4km/h 61% 0.00in /  0mm
16:50 51.7 °F /  10.9 °C 37.8 °F /  3.2 °C 30.14in /  1020.5hPa WSW 4.0mph /  6.4km/h 12.0mph /  19.3km/h 59% 0.00in /  0mm
17:00 50.7 °F /  10.4 °C 38.1 °F /  3.4 °C 30.14in /  1020.5hPa WSW 8.0mph /  12.9km/h 15.0mph /  24.1km/h 62% 0.00in /  0mm
17:05 51.1 °F /  10.6 °C 38.5 °F /  3.6 °C 30.14in /  1020.5hPa SW 8.0mph /  12.9km/h 14.0mph /  22.5km/h 62% 0.00in /  0mm
17:10 51.4 °F /  10.8 °C 38.8 °F /  3.8 °C 30.14in /  1020.5hPa WSW 7.0mph /  11.3km/h 13.0mph /  20.9km/h 62% 0.00in /  0mm
17:15 51.5 °F /  10.8 °C 39.3 °F /  4.1 °C 30.14in /  1020.5hPa SW 3.0mph /  4.8km/h 11.0mph /  17.7km/h 63% 0.00in /  0mm
17:20 51.6 °F /  10.9 °C 39.4 °F /  4.1 °C 30.13in /  1020.2hPa SW 8.0mph /  12.9km/h 13.0mph /  20.9km/h 63% 0.00in /  0mm
17:25 50.8 °F /  10.4 °C 37.8 °F /  3.2 °C 30.13in /  1020.2hPa SW 7.0mph /  11.3km/h 12.0mph /  19.3km/h 61% 0.00in /  0mm
17:30 50.6 °F /  10.3 °C 37.6 °F /  3.1 °C 30.13in /  1020.2hPa WSW 5.0mph /  8km/h 13.0mph /  20.9km/h 61% 0.00in /  0mm
17:35 51.2 °F /  10.7 °C 38.6 °F /  3.7 °C 30.14in /  1020.5hPa WSW 5.0mph /  8km/h 13.0mph /  20.9km/h 62% 0.00in /  0mm
17:40 50.9 °F /  10.5 °C 37.9 °F /  3.3 °C 30.14in /  1020.5hPa SW 4.0mph /  6.4km/h 13.0mph /  20.9km/h 61% 0.00in /  0mm
17:45 51.3 °F /  10.7 °C 39.1 °F /  3.9 °C 30.14in /  1020.5hPa WSW 6.0mph /  9.7km/h 13.0mph /  20.9km/h 63% 0.00in /  0mm
17:50 50.8 °F /  10.4 °C 37.0 °F /  2.8 °C 30.14in /  1020.5hPa WSW 6.0mph /  9.7km/h 13.0mph /  20.9km/h 59% 0.00in /  0mm
17:55 50.8 °F /  10.4 °C 37.4 °F /  3 °C 30.14in /  1020.5hPa SW 7.0mph /  11.3km/h 13.0mph /  20.9km/h 60% 0.00in /  0mm
18:00 50.7 °F /  10.4 °C 37.3 °F /  2.9 °C 30.14in /  1020.5hPa SW 7.0mph /  11.3km/h 14.0mph /  22.5km/h 60% 0.00in /  0mm
18:05 50.7 °F /  10.4 °C 36.9 °F /  2.7 °C 30.14in /  1020.5hPa SW 7.0mph /  11.3km/h 14.0mph /  22.5km/h 59% 0.00in /  0mm
18:10 50.5 °F /  10.3 °C 36.7 °F /  2.6 °C 30.14in /  1020.5hPa WSW 5.0mph /  8km/h 10.0mph /  16.1km/h 59% 0.00in /  0mm
18:15 50.4 °F /  10.2 °C 37.0 °F /  2.8 °C 30.14in /  1020.5hPa SW 6.0mph /  9.7km/h 13.0mph /  20.9km/h 60% 0.00in /  0mm
18:20 50.4 °F /  10.2 °C 37.0 °F /  2.8 °C 30.14in /  1020.5hPa WSW 6.0mph /  9.7km/h 13.0mph /  20.9km/h 60% 0.00in /  0mm
18:25 50.3 °F /  10.2 °C 36.9 °F /  2.7 °C 30.14in /  1020.5hPa WSW 6.0mph /  9.7km/h 15.0mph /  24.1km/h 60% 0.00in /  0mm
18:30 50.1 °F /  10.1 °C 36.7 °F /  2.6 °C 30.15in /  1020.9hPa West 9.0mph /  14.5km/h 13.0mph /  20.9km/h 60% 0.00in /  0mm
18:35 50.2 °F /  10.1 °C 37.3 °F /  2.9 °C 30.15in /  1020.9hPa SW 4.0mph /  6.4km/h 13.0mph /  20.9km/h 61% 0.00in /  0mm
18:40 50.2 °F /  10.1 °C 37.3 °F /  2.9 °C 30.15in /  1020.9hPa WSW 5.0mph /  8km/h 11.0mph /  17.7km/h 61% 0.00in /  0mm
18:45 50.1 °F /  10.1 °C 36.7 °F /  2.6 °C 30.15in /  1020.9hPa SW 6.0mph /  9.7km/h 11.0mph /  17.7km/h 60% 0.00in /  0mm
18:50 49.7 °F /  9.8 °C 36.8 °F /  2.7 °C 30.16in /  1021.2hPa SW 7.0mph /  11.3km/h 16.0mph /  25.7km/h 61% 0.00in /  0mm
18:55 49.5 °F /  9.7 °C 36.6 °F /  2.6 °C 30.16in /  1021.2hPa WSW 7.0mph /  11.3km/h 16.0mph /  25.7km/h 61% 0.00in /  0mm
19:00 49.4 °F /  9.7 °C 36.9 °F /  2.7 °C 30.16in /  1021.2hPa WSW 6.0mph /  9.7km/h 12.0mph /  19.3km/h 62% 0.00in /  0mm
19:05 49.1 °F /  9.5 °C 36.6 °F /  2.6 °C 30.16in /  1021.2hPa WSW 6.0mph /  9.7km/h 13.0mph /  20.9km/h 62% 0.00in /  0mm
19:10 49.0 °F /  9.4 °C 36.9 °F /  2.7 °C 30.16in /  1021.2hPa WSW 7.0mph /  11.3km/h 14.0mph /  22.5km/h 63% 0.00in /  0mm
19:15 49.0 °F /  9.4 °C 36.5 °F /  2.5 °C 30.16in /  1021.2hPa WSW 6.0mph /  9.7km/h 14.0mph /  22.5km/h 62% 0.00in /  0mm
19:20 48.9 °F /  9.4 °C 36.9 °F /  2.7 °C 30.16in /  1021.2hPa WSW 5.0mph /  8km/h 12.0mph /  19.3km/h 63% 0.00in /  0mm
19:25 48.6 °F /  9.2 °C 36.6 °F /  2.6 °C 30.16in /  1021.2hPa WSW 6.0mph /  9.7km/h 12.0mph /  19.3km/h 63% 0.00in /  0mm
19:30 48.4 °F /  9.1 °C 36.4 °F /  2.4 °C 30.16in /  1021.2hPa West 9.0mph /  14.5km/h 12.0mph /  19.3km/h 63% 0.00in /  0mm
19:35 48.2 °F /  9 °C 36.2 °F /  2.3 °C 30.17in /  1021.6hPa WSW 5.0mph /  8km/h 10.0mph /  16.1km/h 63% 0.00in /  0mm
19:40 48.1 °F /  8.9 °C 36.1 °F /  2.3 °C 30.17in /  1021.6hPa SW 7.0mph /  11.3km/h 9.0mph /  14.5km/h 63% 0.00in /  0mm
19:45 48.0 °F /  8.9 °C 36.0 °F /  2.2 °C 30.17in /  1021.6hPa WSW 3.0mph /  4.8km/h 13.0mph /  20.9km/h 63% 0.00in /  0mm
19:50 47.8 °F /  8.8 °C 35.8 °F /  2.1 °C 30.18in /  1021.9hPa WSW 5.0mph /  8km/h 13.0mph /  20.9km/h 63% 0.00in /  0mm
19:55 47.6 °F /  8.7 °C 35.6 °F /  2 °C 30.18in /  1021.9hPa WSW 4.0mph /  6.4km/h 8.0mph /  12.9km/h 63% 0.00in /  0mm
20:00 47.5 °F /  8.6 °C 35.5 °F /  1.9 °C 30.19in /  1022.2hPa WSW 4.0mph /  6.4km/h 8.0mph /  12.9km/h 63% 0.00in /  0mm
20:05 47.4 °F /  8.6 °C 35.4 °F /  1.9 °C 30.20in /  1022.6hPa West 4.0mph /  6.4km/h 9.0mph /  14.5km/h 63% 0.00in /  0mm
20:10 47.3 °F /  8.5 °C 35.3 °F /  1.8 °C 30.20in /  1022.6hPa WSW 4.0mph /  6.4km/h 11.0mph /  17.7km/h 63% 0.00in /  0mm
20:15 47.3 °F /  8.5 °C 35.3 °F /  1.8 °C 30.20in /  1022.6hPa WSW 5.0mph /  8km/h 10.0mph /  16.1km/h 63% 0.00in /  0mm
20:20 47.1 °F /  8.4 °C 35.1 °F /  1.7 °C 30.20in /  1022.6hPa WSW 5.0mph /  8km/h 10.0mph /  16.1km/h 63% 0.00in /  0mm
20:25 47.1 °F /  8.4 °C 35.5 °F /  1.9 °C 30.21in /  1022.9hPa WSW 4.0mph /  6.4km/h 9.0mph /  14.5km/h 64% 0.00in /  0mm
20:30 47.2 °F /  8.4 °C 35.2 °F /  1.8 °C 30.22in /  1023.2hPa WSW 5.0mph /  8km/h 12.0mph /  19.3km/h 63% 0.00in /  0mm
20:35 47.1 °F /  8.4 °C 35.1 °F /  1.7 °C 30.22in /  1023.2hPa West 3.0mph /  4.8km/h 7.0mph /  11.3km/h 63% 0.00in /  0mm
20:40 47.0 °F /  8.3 °C 35.0 °F /  1.7 °C 30.22in /  1023.2hPa West 5.0mph /  8km/h 10.0mph /  16.1km/h 63% 0.00in /  0mm
20:45 47.0 °F /  8.3 °C 35.4 °F /  1.9 °C 30.22in /  1023.2hPa West 4.0mph /  6.4km/h 10.0mph /  16.1km/h 64% 0.00in /  0mm
20:50 47.0 °F /  8.3 °C 35.0 °F /  1.7 °C 30.22in /  1023.2hPa WSW 4.0mph /  6.4km/h 10.0mph /  16.1km/h 63% 0.00in /  0mm
20:55 47.0 °F /  8.3 °C 35.0 °F /  1.7 °C 30.22in /  1023.2hPa WSW 4.0mph /  6.4km/h 9.0mph /  14.5km/h 63% 0.00in /  0mm
21:00 47.0 °F /  8.3 °C 35.4 °F /  1.9 °C 30.22in /  1023.2hPa WSW 5.0mph /  8km/h 10.0mph /  16.1km/h 64% 0.00in /  0mm
21:05 46.9 °F /  8.3 °C 35.4 °F /  1.9 °C 30.23in /  1023.6hPa West 5.0mph /  8km/h 8.0mph /  12.9km/h 64% 0.00in /  0mm
21:10 46.9 °F /  8.3 °C 35.4 °F /  1.9 °C 30.23in /  1023.6hPa WSW 2.0mph /  3.2km/h 7.0mph /  11.3km/h 64% 0.00in /  0mm
21:15 46.9 °F /  8.3 °C 35.4 °F /  1.9 °C 30.23in /  1023.6hPa WSW 3.0mph /  4.8km/h 8.0mph /  12.9km/h 64% 0.00in /  0mm
21:20 47.0 °F /  8.3 °C 35.4 °F /  1.9 °C 30.24in /  1023.9hPa WSW 4.0mph /  6.4km/h 8.0mph /  12.9km/h 64% 0.00in /  0mm
21:30 47.0 °F /  8.3 °C 35.4 °F /  1.9 °C 30.24in /  1023.9hPa WSW 4.0mph /  6.4km/h 8.0mph /  12.9km/h 64% 0.00in /  0mm
21:35 47.0 °F /  8.3 °C 35.4 °F /  1.9 °C 30.23in /  1023.6hPa WSW 3.0mph /  4.8km/h 7.0mph /  11.3km/h 64% 0.00in /  0mm
21:40 46.9 °F /  8.3 °C 35.4 °F /  1.9 °C 30.23in /  1023.6hPa SW 1.0mph /  1.6km/h 7.0mph /  11.3km/h 64% 0.00in /  0mm
21:45 46.6 °F /  8.1 °C 35.5 °F /  1.9 °C 30.23in /  1023.6hPa WSW 2.0mph /  3.2km/h 7.0mph /  11.3km/h 65% 0.00in /  0mm
21:50 46.6 °F /  8.1 °C 35.5 °F /  1.9 °C 30.23in /  1023.6hPa WSW 2.0mph /  3.2km/h 6.0mph /  9.7km/h 65% 0.00in /  0mm
21:55 46.5 °F /  8.1 °C 35.4 °F /  1.9 °C 30.23in /  1023.6hPa WSW 2.0mph /  3.2km/h 6.0mph /  9.7km/h 65% 0.00in /  0mm
22:00 46.2 °F /  7.9 °C 35.5 °F /  1.9 °C 30.23in /  1023.6hPa WSW 2.0mph /  3.2km/h 5.0mph /  8km/h 66% 0.00in /  0mm
22:05 45.9 °F /  7.7 °C 35.6 °F /  2 °C 30.23in /  1023.6hPa SW 3.0mph /  4.8km/h 4.0mph /  6.4km/h 67% 0.00in /  0mm
22:10 45.5 °F /  7.5 °C 35.5 °F /  1.9 °C 30.23in /  1023.6hPa Calm   3.0mph /  4.8km/h 68% 0.00in /  0mm
22:15 44.9 °F /  7.2 °C 35.7 °F /  2.1 °C 30.23in /  1023.6hPa SW 1.0mph /  1.6km/h 3.0mph /  4.8km/h 70% 0.00in /  0mm
22:20 44.9 °F /  7.2 °C 36.1 °F /  2.3 °C 30.23in /  1023.6hPa Calm   4.0mph /  6.4km/h 71% 0.00in /  0mm
22:25 44.9 °F /  7.2 °C 36.1 °F /  2.3 °C 30.23in /  1023.6hPa SW 2.0mph /  3.2km/h 5.0mph /  8km/h 71% 0.00in /  0mm
22:30 45.1 °F /  7.3 °C 36.6 °F /  2.6 °C 30.23in /  1023.6hPa SSW 2.0mph /  3.2km/h 4.0mph /  6.4km/h 72% 0.00in /  0mm
22:35 45.1 °F /  7.3 °C 36.6 °F /  2.6 °C 30.23in /  1023.6hPa SSW 2.0mph /  3.2km/h 4.0mph /  6.4km/h 72% 0.00in /  0mm
22:40 44.8 °F /  7.1 °C 36.7 °F /  2.6 °C 30.23in /  1023.6hPa Calm   4.0mph /  6.4km/h 73% 0.00in /  0mm
22:45 44.7 °F /  7.1 °C 36.9 °F /  2.7 °C 30.23in /  1023.6hPa SSW 2.0mph /  3.2km/h 4.0mph /  6.4km/h 74% 0.00in /  0mm
22:50 44.6 °F /  7 °C 37.2 °F /  2.9 °C 30.24in /  1023.9hPa SSW 2.0mph /  3.2km/h 6.0mph /  9.7km/h 75% 0.00in /  0mm
22:55 44.8 °F /  7.1 °C 37.0 °F /  2.8 °C 30.24in /  1023.9hPa SSW 2.0mph /  3.2km/h 6.0mph /  9.7km/h 74% 0.00in /  0mm
23:00 44.5 °F /  6.9 °C 37.1 °F /  2.8 °C 30.23in /  1023.6hPa SW 2.0mph /  3.2km/h 4.0mph /  6.4km/h 75% 0.00in /  0mm
23:05 44.4 °F /  6.9 °C 36.6 °F /  2.6 °C 30.23in /  1023.6hPa SW 1.0mph /  1.6km/h 4.0mph /  6.4km/h 74% 0.00in /  0mm
23:10 44.1 °F /  6.7 °C 36.7 °F /  2.6 °C 30.23in /  1023.6hPa SW 1.0mph /  1.6km/h 3.0mph /  4.8km/h 75% 0.00in /  0mm
23:15 43.9 °F /  6.6 °C 36.8 °F /  2.7 °C 30.23in /  1023.6hPa Calm   2.0mph /  3.2km/h 76% 0.00in /  0mm
23:20 43.7 °F /  6.5 °C 36.6 °F /  2.6 °C 30.23in /  1023.6hPa Calm   2.0mph /  3.2km/h 76% 0.00in /  0mm
23:30 43.1 °F /  6.2 °C 36.7 °F /  2.6 °C 30.23in /  1023.6hPa Calm     78% 0.00in /  0mm
23:35 42.9 °F /  6.1 °C 36.5 °F /  2.5 °C 30.23in /  1023.6hPa Calm     78% 0.00in /  0mm
23:40 42.5 °F /  5.8 °C 36.4 °F /  2.4 °C 30.22in /  1023.2hPa Calm     79% 0.00in /  0mm
23:45 42.5 °F /  5.8 °C 36.4 °F /  2.4 °C 30.22in /  1023.2hPa Calm   3.0mph /  4.8km/h 79% 0.00in /  0mm
23:50 42.6 °F /  5.9 °C 36.2 °F /  2.3 °C 30.22in /  1023.2hPa Calm   3.0mph /  4.8km/h 78% 0.00in /  0mm
23:55 42.5 °F /  5.8 °C 36.1 °F /  2.3 °C 30.21in /  1022.9hPa Calm   2.0mph /  3.2km/h 78% 0.00in /  0mm
Buffalo, New York, USA
Compliments of Weather Underground - 2.5 mb